This is the latest recevied weather packets stored in our database for station/object EA7JCM-13. If no packets are shown the sender has not sent any weather packets the latest 10 day(s).
| Time | Temp. | Humidity | Pressure | Rain* | Wind** | Luminosity | Snow |
|---|---|---|---|---|---|---|---|
| 1777910103 | 20° C | 42% | 1009.6 hPa | 0 mm | - | - | - |
| 1777909804 | 20.56° C | 41% | 1009.8 hPa | 0 mm | - | - | - |
| 1777909503 | 20.56° C | 41% | 1009.7 hPa | 0 mm | - | - | - |
| 1777909203 | 20.56° C | 40% | 1009.7 hPa | 0 mm | - | - | - |
| 1777908903 | 20.56° C | 39% | 1009.8 hPa | 0 mm | - | - | - |
| 1777908603 | 20.56° C | 37% | 1010.1 hPa | 0 mm | - | - | - |
| 1777908302 | 21.11° C | 38% | 1009.9 hPa | 0 mm | - | - | - |
| 1777908003 | 20.56° C | 40% | 1009.7 hPa | 0 mm | - | - | - |
| 1777907703 | 20° C | 41% | 1009.8 hPa | 0 mm | - | - | - |
| 1777907403 | 20° C | 40% | 1010 hPa | 0 mm | - | - | - |
| 1777907102 | 20° C | 41% | 1009.7 hPa | 0 mm | - | - | - |
| 1777906803 | 19.44° C | 45% | 1010.1 hPa | 0 mm | - | - | - |
| 1777906503 | 19.44° C | 47% | 1010.1 hPa | 0 mm | - | - | - |
| 1777906203 | 19.44° C | 47% | 1010.2 hPa | 0 mm | - | - | - |
| 1777905903 | 20° C | 46% | 1010 hPa | 0 mm | - | - | - |
| 1777905603 | 20° C | 46% | 1010.2 hPa | 0 mm | - | - | - |
| 1777905303 | 19.44° C | 49% | 1010.3 hPa | 0 mm | - | - | - |
| 1777905003 | 19.44° C | 47% | 1010.2 hPa | 0 mm | - | - | - |
| 1777904702 | 20.56° C | 43% | 1010.1 hPa | 0 mm | - | - | - |
| 1777904403 | 20.56° C | 44% | 1010.2 hPa | 0 mm | - | - | - |
| 1777904103 | 20° C | 45% | 1010.1 hPa | 0 mm | - | - | - |
| 1777903803 | 19.44° C | 45% | 1010.2 hPa | 0 mm | - | - | - |
| 1777903503 | 20° C | 45% | 1010.4 hPa | 0 mm | - | - | - |
| 1777903203 | 20° C | 46% | 1010.4 hPa | 0 mm | - | - | - |
| 1777902903 | 20° C | 48% | 1010.4 hPa | 0 mm | - | - | - |
* Rain latest hour (hover to see other rain measurements)
** Current wind speed in m/s (hover to see current wind gust speed)